Bladon Springs, Alabama
Current Conditions -  °F | °C
As of 2:58 AM on Friday 28 Nov 2014 (Local Time) from KMEI Reporting Station
Clear Clear  
Wind Chill: 29°   Ceiling: Unl
Heat Index: 33°   Visibility: 10mi
Dew Point: 28°   Wind: 5mph
Humidity: 82%   Direction: 70°ENE
Pressure: 30.44"   Gusts: NA
Location:  31.7615°N, 88.3039°W
Report Text: KMEI 280858Z AUTO 07004KT 10SM CLR 01/M02 A3044 RMK AO2 SLP308 T00061022 55007
Loading
Personal Weather Stations






























Interactive Weather Map New forecast layout! Learn more

10-Day Weather Forecast

Advertisements
Track Severe Weather on mobile